Time;durP1;ratioP1;P1;durP2;ratioP2;P2;SDS_P1;SDS_P2;PMS_P1;PMS_P2;Temp;Humidity;BMP_temperature;BMP_pressure;BME280_temperature;BME280_humidity;BME280_pressure;Samples;Min_cycle;Max_cycle;Signal;HPM_P1;HPM_P2
2022/03/07 00:01:50;;;;;;;28.77;17.27;;;;;;;3.23;45.25;100938.63;6243640;22;96476;-89
2022/03/07 00:04:17;;;;;;;29.27;16.97;;;;;;;3.40;44.90;100968.13;6244066;22;96762;-88
2022/03/07 00:06:43;;;;;;;30.20;18.40;;;;;;;3.44;44.97;100971.63;6217717;22;100702;-88
2022/03/07 00:09:09;;;;;;;31.90;17.70;;;;;;;3.39;44.91;100964.69;6241399;22;97918;-89
2022/03/07 00:11:35;;;;;;;29.00;17.33;;;;;;;3.37;44.90;100965.53;6217427;22;96720;-88
2022/03/07 00:14:01;;;;;;;27.73;16.93;;;;;;;3.33;44.92;100963.78;6244080;22;96640;-89
2022/03/07 00:16:28;;;;;;;33.90;18.93;;;;;;;3.33;44.87;100963.78;6243754;22;97590;-89
2022/03/07 00:18:53;;;;;;;26.63;17.10;;;;;;;3.39;45.13;100967.28;6216596;22;101013;-89
2022/03/07 00:21:19;;;;;;;28.23;17.07;;;;;;;3.39;45.13;100974.19;6217437;22;96923;-89
2022/03/07 00:23:45;;;;;;;28.30;17.20;;;;;;;3.39;45.34;100975.06;6217113;22;97108;-89
2022/03/07 00:26:11;;;;;;;25.10;16.03;;;;;;;3.37;45.28;100960.34;6216028;22;97116;-88
2022/03/07 00:28:36;;;;;;;27.87;17.27;;;;;;;3.36;45.02;100972.44;6217230;22;99782;-89
2022/03/07 00:31:02;;;;;;;28.20;16.40;;;;;;;3.12;44.93;100933.41;6191630;22;96561;-89
2022/03/07 00:33:27;;;;;;;26.33;15.63;;;;;;;3.38;45.12;100975.06;6192050;22;97235;-88
2022/03/07 00:35:54;;;;;;;29.00;16.00;;;;;;;3.39;45.08;100967.28;6216675;22;101710;-88
2022/03/07 00:38:20;;;;;;;29.77;16.57;;;;;;;3.36;45.50;100961.19;6191932;22;100824;-88
2022/03/07 00:40:45;;;;;;;28.10;16.50;;;;;;;3.22;45.15;100935.16;6217655;22;97195;-88
2022/03/07 00:43:11;;;;;;;28.57;18.03;;;;;;;3.35;45.11;100959.47;6193003;22;97472;-88
2022/03/07 00:45:39;;;;;;;33.77;18.53;;;;;;;3.35;45.10;100962.06;6192767;22;101585;-89
2022/03/07 00:48:04;;;;;;;30.27;17.87;;;;;;;3.33;45.74;100963.78;6191438;22;101254;-88
2022/03/07 00:50:30;;;;;;;31.50;18.20;;;;;;;3.36;45.54;100963.81;6191087;22;96722;-89
2022/03/07 00:52:56;;;;;;;29.90;16.93;;;;;;;3.30;45.78;100958.56;6217556;22;96702;-89
2022/03/07 00:55:23;;;;;;;33.00;18.90;;;;;;;3.28;46.03;100955.97;6191914;22;98336;-88
2022/03/07 00:57:49;;;;;;;31.97;17.97;;;;;;;3.18;45.66;100936.03;6217350;22;101229;-89
2022/03/07 01:00:15;;;;;;;32.23;17.07;;;;;;;3.33;45.36;100953.41;6191604;22;96607;-88
2022/03/07 01:02:41;;;;;;;33.07;18.63;;;;;;;3.32;45.62;100951.69;6192808;22;96673;-88
2022/03/07 01:05:07;;;;;;;30.83;17.67;;;;;;;3.28;45.78;100950.75;6216576;22;101170;-88
2022/03/07 01:07:33;;;;;;;31.43;18.03;;;;;;;3.08;45.14;100916.91;6192274;22;101533;-89
2022/03/07 01:09:58;;;;;;;30.60;16.97;;;;;;;3.33;45.36;100963.78;6217047;22;96554;-88
2022/03/07 01:12:24;;;;;;;29.13;16.83;;;;;;;3.30;45.77;100951.66;6217432;22;97105;-88
2022/03/07 01:14:51;;;;;;;32.33;16.97;;;;;;;3.28;45.62;100955.97;6191893;22;100411;-88
2022/03/07 01:17:17;;;;;;;34.30;18.40;;;;;;;3.31;45.72;100955.97;6217130;22;101567;-88
2022/03/07 01:19:42;;;;;;;32.67;17.27;;;;;;;3.34;45.51;100955.13;6217862;22;96655;-88
2022/03/07 01:22:08;;;;;;;29.30;17.33;;;;;;;3.34;45.45;100944.75;6217102;22;96885;-88
2022/03/07 01:24:36;;;;;;;31.57;16.53;;;;;;;3.18;44.99;100923.03;6191930;22;101138;-89
2022/03/07 01:27:03;;;;;;;29.73;16.37;;;;;;;3.26;45.28;100944.72;6241595;22;98181;-88
2022/03/07 01:29:28;;;;;;;25.27;15.27;;;;;;;3.10;45.04;100915.22;6217623;22;96646;-89
2022/03/07 01:31:54;;;;;;;31.33;17.40;;;;;;;3.11;45.42;100910.88;6243986;22;96724;-89
2022/03/07 01:34:20;;;;;;;24.40;15.03;;;;;;;3.23;45.59;100936.91;6217493;22;101236;-88
2022/03/07 01:36:46;;;;;;;28.63;15.43;;;;;;;3.31;45.30;100939.53;6242343;22;97970;-88
2022/03/07 01:39:11;;;;;;;24.43;13.93;;;;;;;3.17;45.57;100909.22;6215501;22;97155;-88
2022/03/07 01:41:38;;;;;;;27.03;15.80;;;;;;;3.38;45.38;100933.53;6191195;22;96657;-88
2022/03/07 01:44:03;;;;;;;25.17;15.23;;;;;;;3.35;45.40;100931.78;6215768;22;101429;-88
2022/03/07 01:46:31;;;;;;;28.77;15.10;;;;;;;3.37;45.14;100929.19;6191823;22;100095;-89
2022/03/07 01:48:57;;;;;;;30.57;15.27;;;;;;;3.37;45.17;100935.28;6216664;22;96576;-88
2022/03/07 01:51:23;;;;;;;29.23;15.00;;;;;;;3.32;45.26;100925.72;6216711;22;97049;-88
2022/03/07 01:53:51;;;;;;;25.67;14.23;;;;;;;3.28;45.25;100914.44;6216771;22;99769;-89
2022/03/07 01:56:17;;;;;;;23.57;14.10;;;;;;;3.17;45.53;100896.25;6192385;22;101453;-88
2022/03/07 01:58:43;;;;;;;25.90;14.07;;;;;;;3.30;45.39;100919.66;6218004;22;96737;-88
2022/03/07 02:01:09;;;;;;;26.27;15.03;;;;;;;3.27;45.34;100920.50;6191419;22;96834;-88
2022/03/07 02:03:34;;;;;;;25.13;14.90;;;;;;;3.21;45.59;100904.91;6216660;22;101290;-88
2022/03/07 02:06:00;;;;;;;29.10;14.80;;;;;;;3.26;45.47;100897.13;6242108;22;98236;-88
2022/03/07 02:08:26;;;;;;;26.63;14.47;;;;;;;3.12;45.59;100884.97;6217088;22;96616;-88
2022/03/07 02:11:02;;;;;;;31.87;16.97;;;;;;;3.09;45.07;100866.78;6196066;22;96602;-89
2022/03/07 02:13:30;;;;;;;26.20;15.33;;;;;;;3.21;45.17;100891.94;6218486;22;101890;-88
2022/03/07 02:16:04;;;;;;;24.20;14.13;;;;;;;3.22;45.78;100901.44;6219128;22;101456;-88
2022/03/07 02:18:33;;;;;;;27.77;15.03;;;;;;;3.25;45.44;100898.84;6193638;22;97009;-89
2022/03/07 02:21:20;;;;;;;27.43;14.87;;;;;;;3.27;45.79;100904.06;6202281;22;96829;-89
2022/03/07 02:23:58;;;;;;;22.83;13.83;;;;;;;3.25;45.97;100896.25;6197614;22;101523;-88
2022/03/07 02:26:24;;;;;;;25.63;14.73;;;;;;;3.25;45.87;100891.06;6218004;22;100297;-88
2022/03/07 02:28:52;;;;;;;30.03;14.80;;;;;;;3.27;46.20;100891.09;6218287;22;96611;-88
2022/03/07 02:31:22;;;;;;;26.83;15.10;;;;;;;3.27;45.85;100886.75;6195651;22;96763;-88
2022/03/07 02:33:50;;;;;;;24.23;14.50;;;;;;;3.16;45.84;100865.94;6193204;22;101679;-88
2022/03/07 02:36:18;;;;;;;24.43;14.73;;;;;;;3.31;46.06;100905.81;6217114;22;101740;-88
2022/03/07 02:38:44;;;;;;;26.97;14.87;;;;;;;3.17;46.03;100887.56;6218262;22;96912;-89
2022/03/07 02:41:10;;;;;;;26.50;13.90;;;;;;;3.24;45.84;100896.25;6217796;22;96843;-88
2022/03/07 02:43:36;;;;;;;22.37;13.67;;;;;;;3.21;46.12;100888.47;6192641;22;102149;-88
2022/03/07 02:46:02;;;;;;;27.27;14.40;;;;;;;3.29;46.52;100905.81;6192207;22;101179;-88
2022/03/07 02:48:28;;;;;;;25.23;14.57;;;;;;;3.29;46.08;100907.53;6192788;22;97641;-88
2022/03/07 02:50:55;;;;;;;25.73;13.77;;;;;;;3.25;46.44;100898.00;6192469;22;96840;-89
2022/03/07 02:53:21;;;;;;;26.20;15.73;;;;;;;3.18;46.66;100900.56;6191879;22;101582;-88
2022/03/07 02:55:47;;;;;;;24.13;13.53;;;;;;;3.18;46.73;100907.47;6218342;22;100272;-87
2022/03/07 02:58:12;;;;;;;26.80;14.53;;;;;;;3.18;46.66;100894.50;6192027;22;96616;-88
2022/03/07 03:00:38;;;;;;;21.60;13.47;;;;;;;3.22;46.41;100893.66;6217771;22;96780;-89
2022/03/07 03:03:03;;;;;;;24.03;14.53;;;;;;;3.00;46.88;100873.66;6217985;22;100778;-88
2022/03/07 03:05:29;;;;;;;24.13;13.67;;;;;;;3.16;46.92;100891.88;6193872;22;101399;-88
2022/03/07 03:07:55;;;;;;;23.63;14.37;;;;;;;3.15;46.86;100897.09;6244693;22;96502;-88
2022/03/07 03:10:21;;;;;;;25.07;13.40;;;;;;;3.12;46.99;100887.56;6244308;22;96677;-88
2022/03/07 03:12:47;;;;;;;21.60;13.53;;;;;;;3.23;47.15;100895.41;6218588;22;101353;-88
2022/03/07 03:15:14;;;;;;;19.73;12.40;;;;;;;3.22;46.86;100898.84;6191178;22;101714;-88
2022/03/07 03:17:41;;;;;;;26.63;14.10;;;;;;;3.13;46.87;100878.03;6216968;22;97033;-88
2022/03/07 03:20:08;;;;;;;23.67;14.10;;;;;;;3.04;47.13;100858.09;6191768;22;96589;-88
2022/03/07 03:22:34;;;;;;;24.43;13.57;;;;;;;3.20;47.19;100887.59;6243356;22;96986;-88
2022/03/07 03:25:00;;;;;;;21.33;12.07;;;;;;;3.01;47.07;100868.47;6217637;22;101122;-89
2022/03/07 03:27:25;;;;;;;21.60;11.93;;;;;;;3.10;47.67;100876.28;6193074;22;96922;-88
2022/03/07 03:29:51;;;;;;;24.53;13.10;;;;;;;3.19;47.10;100880.66;6218900;22;96921;-88
2022/03/07 03:32:16;;;;;;;21.37;12.93;;;;;;;3.14;47.37;100872.88;6242871;22;100743;-88
2022/03/07 03:34:42;;;;;;;24.77;13.60;;;;;;;3.18;47.62;100878.94;6217971;22;97722;-88
2022/03/07 03:37:08;;;;;;;24.90;12.73;;;;;;;3.23;47.26;100879.84;6243625;22;97102;-88
2022/03/07 03:39:33;;;;;;;19.90;13.00;;;;;;;3.21;47.71;100888.47;6191976;22;96860;-88
2022/03/07 03:41:59;;;;;;;22.03;12.50;;;;;;;3.17;47.43;100874.59;6216652;22;99838;-88
2022/03/07 03:44:25;;;;;;;23.63;12.27;;;;;;;3.07;47.69;100847.75;6217923;22;100954;-88
2022/03/07 03:46:50;;;;;;;21.53;12.63;;;;;;;3.12;47.88;100853.84;6192775;22;96531;-88
2022/03/07 03:49:16;;;;;;;22.63;12.03;;;;;;;3.19;47.73;100872.88;6191946;22;97037;-88
2022/03/07 03:51:41;;;;;;;25.43;11.83;;;;;;;3.12;47.84;100852.97;6242990;22;97133;-89
2022/03/07 03:54:07;;;;;;;20.87;11.70;;;;;;;3.12;47.94;100861.63;6191030;22;101200;-89
2022/03/07 03:56:33;;;;;;;21.33;11.47;;;;;;;3.04;48.29;100842.53;6192606;22;96993;-88
2022/03/07 03:58:59;;;;;;;23.27;10.93;;;;;;;3.20;48.08;100864.25;6192999;22;96969;-89
2022/03/07 04:01:24;;;;;;;20.87;11.77;;;;;;;3.23;48.14;100884.13;6218168;22;97906;-88
2022/03/07 04:03:50;;;;;;;22.63;12.53;;;;;;;3.10;48.10;100865.06;6243207;22;97928;-88
2022/03/07 04:06:15;;;;;;;23.10;11.37;;;;;;;3.17;48.20;100875.47;6191229;22;96596;-88
2022/03/07 04:08:41;;;;;;;21.73;11.73;;;;;;;3.05;48.24;100875.38;6192045;22;97227;-88
2022/03/07 04:11:07;;;;;;;22.83;12.10;;;;;;;3.20;48.29;100882.41;6217136;22;100111;-88
2022/03/07 04:13:32;;;;;;;26.23;11.90;;;;;;;3.08;48.63;100872.81;6218120;22;101317;-89
2022/03/07 04:15:58;;;;;;;22.33;11.07;;;;;;;3.12;48.53;100881.50;6217803;22;96654;-89
2022/03/07 04:18:24;;;;;;;21.23;12.37;;;;;;;2.80;48.45;100813.91;6218048;22;96653;-88
2022/03/07 04:20:50;;;;;;;23.53;11.47;;;;;;;3.12;48.41;100864.22;6217904;22;98362;-89
2022/03/07 04:23:20;;;;;;;19.53;11.10;;;;;;;3.00;48.81;100843.41;6192263;22;101231;-88
2022/03/07 04:25:48;;;;;;;20.60;10.20;;;;;;;3.12;48.40;100872.00;6193397;22;96852;-88
2022/03/07 04:28:14;;;;;;;20.60;11.30;;;;;;;3.06;48.81;100873.69;6191959;22;97039;-87
2022/03/07 04:30:40;;;;;;;17.27;10.17;;;;;;;3.07;49.30;100875.41;6216558;22;98447;-88
2022/03/07 04:33:05;;;;;;;19.93;10.60;;;;;;;3.02;49.31;100867.59;6215651;22;98395;-89
2022/03/07 04:35:31;;;;;;;16.77;9.77;;;;;;;3.04;49.33;100875.41;6215632;22;96935;-88
2022/03/07 04:37:56;;;;;;;17.63;10.13;;;;;;;3.05;49.40;100872.81;6216585;22;96893;-88
2022/03/07 04:40:22;;;;;;;26.57;11.07;;;;;;;3.09;49.56;100881.50;6190488;22;100974;-88
2022/03/07 04:42:48;;;;;;;19.13;10.67;;;;;;;3.10;49.61;100878.88;6191674;22;101879;-89
2022/03/07 04:45:14;;;;;;;19.03;10.53;;;;;;;2.89;49.74;100842.47;6192086;22;97649;-89
2022/03/07 04:47:40;;;;;;;20.77;10.60;;;;;;;2.99;49.36;100853.75;6193037;22;97125;-89
2022/03/07 04:50:07;;;;;;;21.40;10.90;;;;;;;3.09;49.89;100881.50;6187563;22;101365;-89
2022/03/07 04:52:34;;;;;;;21.30;10.20;;;;;;;2.98;49.59;100852.88;6216473;22;101070;-88
2022/03/07 04:54:59;;;;;;;21.73;10.33;;;;;;;3.04;50.02;100870.22;6216926;22;96916;-88
2022/03/07 04:57:25;;;;;;;21.37;9.80;;;;;;;3.05;49.95;100875.38;6217714;22;96785;-89
2022/03/07 04:59:50;;;;;;;21.30;10.90;;;;;;;3.00;50.22;100878.84;6217495;22;101591;-88
2022/03/07 05:02:16;;;;;;;20.33;11.83;;;;;;;3.01;50.40;100881.44;6217703;22;101145;-88
2022/03/07 05:04:41;;;;;;;21.77;10.73;;;;;;;3.02;50.21;100888.34;6217419;22;96817;-88
2022/03/07 05:07:07;;;;;;;33.23;11.50;;;;;;;3.07;50.54;100897.03;6215700;22;97390;-90
2022/03/07 05:09:33;;;;;;;21.63;10.90;;;;;;;2.90;50.38;100859.75;6218311;22;101784;-88
2022/03/07 05:11:59;;;;;;;21.70;10.43;;;;;;;3.04;50.31;100891.81;6194673;22;100069;-88
2022/03/07 05:14:25;;;;;;;24.10;10.53;;;;;;;2.84;50.90;100860.59;6192551;22;96641;-88
2022/03/07 05:16:50;;;;;;;23.60;10.03;;;;;;;3.04;50.97;100893.56;6192787;22;96841;-89
2022/03/07 05:19:16;;;;;;;22.57;9.83;;;;;;;2.99;50.93;100890.94;6216478;22;101032;-88
2022/03/07 05:21:42;;;;;;;18.73;10.33;;;;;;;2.87;50.78;100868.38;6191622;22;101707;-88
2022/03/07 05:24:07;;;;;;;20.20;10.27;;;;;;;2.96;51.01;100885.72;6190690;22;96707;-90
2022/03/07 05:26:33;;;;;;;18.33;9.97;;;;;;;2.88;51.26;100889.97;6243378;22;96539;-88
2022/03/07 05:28:59;;;;;;;18.07;9.47;;;;;;;3.01;51.39;100907.38;6217852;22;97683;-89
2022/03/07 05:31:24;;;;;;;19.53;10.30;;;;;;;3.01;51.81;100902.19;6242953;22;97284;-88
2022/03/07 05:33:50;;;;;;;17.67;9.07;;;;;;;3.00;52.13;100909.97;6191564;22;96477;-88
2022/03/07 05:36:15;;;;;;;22.37;10.63;;;;;;;2.97;51.67;100913.41;6191778;22;98052;-88
2022/03/07 05:38:41;;;;;;;23.13;9.60;;;;;;;2.84;52.20;100891.69;6191583;22;100111;-89
2022/03/07 05:41:07;;;;;;;19.43;9.73;;;;;;;2.96;52.37;100903.88;6216512;22;100775;-88
2022/03/07 05:43:34;;;;;;;19.90;9.63;;;;;;;2.97;52.83;100913.41;6217054;22;96766;-88
2022/03/07 05:46:00;;;;;;;28.10;10.17;;;;;;;2.96;52.48;100914.25;6217544;22;96618;-88
2022/03/07 05:48:25;;;;;;;23.03;10.10;;;;;;;2.95;52.41;100915.97;6191124;22;100755;-89
2022/03/07 05:50:51;;;;;;;20.03;9.13;;;;;;;3.03;52.62;100916.03;6241637;22;98607;-89
2022/03/07 05:53:21;;;;;;;17.87;8.67;;;;;;;3.09;52.40;100923.84;6191500;22;96875;-88
2022/03/07 05:55:50;;;;;;;20.87;9.20;;;;;;;3.04;52.90;100922.09;6217800;22;96770;-88
2022/03/07 05:58:16;;;;;;;23.03;10.37;;;;;;;3.06;52.68;100918.66;6216767;22;101508;-88
2022/03/07 06:00:42;;;;;;;19.70;9.63;;;;;;;3.04;52.76;100922.97;6217594;22;99998;-88
2022/03/07 06:03:07;;;;;;;22.63;9.77;;;;;;;2.94;53.44;100905.63;6216215;22;96591;-89
2022/03/07 06:05:33;;;;;;;21.03;9.93;;;;;;;3.03;53.11;100923.81;6216825;22;96694;-89
2022/03/07 06:07:59;;;;;;;18.33;9.43;;;;;;;2.84;53.43;100888.25;6216011;22;101601;-88
2022/03/07 06:10:25;;;;;;;23.70;9.50;;;;;;;3.01;53.38;100916.88;6190489;22;101124;-89
2022/03/07 06:12:51;;;;;;;18.90;9.43;;;;;;;2.94;53.40;100910.81;6192160;22;96577;-88
2022/03/07 06:15:16;;;;;;;16.60;8.47;;;;;;;3.04;53.74;100933.34;6217067;22;96895;-89
2022/03/07 06:17:53;;;;;;;24.17;9.30;;;;;;;3.06;53.75;100933.34;6216980;22;98124;-89
2022/03/07 06:20:21;;;;;;;19.03;8.80;;;;;;;2.93;53.79;100906.44;6216085;22;97293;-88
2022/03/07 06:22:47;;;;;;;21.23;9.10;;;;;;;3.07;53.96;100932.47;6216728;22;96604;-89
2022/03/07 06:25:12;;;;;;;21.43;8.73;;;;;;;3.10;53.99;100930.78;6216174;22;97119;-89
2022/03/07 06:27:38;;;;;;;21.73;9.57;;;;;;;3.11;54.03;100932.53;6216924;22;98332;-89
2022/03/07 06:30:04;;;;;;;23.30;9.60;;;;;;;3.17;53.95;100936.84;6216831;22;100691;-88
2022/03/07 06:32:30;;;;;;;19.83;8.87;;;;;;;3.13;54.16;100929.94;6216879;22;96569;-88
2022/03/07 06:34:55;;;;;;;23.90;11.20;;;;;;;3.23;53.80;100936.91;6216641;22;96805;-88
2022/03/07 06:37:21;;;;;;;16.47;8.50;;;;;;;3.25;54.43;100942.09;6190598;22;101368;-88
2022/03/07 06:39:47;;;;;;;21.07;8.13;;;;;;;3.15;54.34;100921.28;6189392;22;101381;-89
2022/03/07 06:42:12;;;;;;;23.70;11.17;;;;;;;3.34;54.09;100940.41;6188587;22;97136;-88
2022/03/07 06:44:39;;;;;;;19.03;8.63;;;;;;;3.35;54.08;100939.56;6190413;22;96923;-88
2022/03/07 06:47:08;;;;;;;20.60;9.20;;;;;;;3.33;54.45;100920.53;6215032;22;101266;-89
2022/03/07 06:49:34;;;;;;;21.30;10.43;;;;;;;3.49;53.98;100933.56;6190489;22;99218;-88
2022/03/07 06:52:00;;;;;;;22.87;9.97;;;;;;;3.34;54.51;100906.69;6241748;22;96884;-88
2022/03/07 06:54:25;;;;;;;23.70;10.53;;;;;;;3.72;54.15;100931.94;6216110;22;97056;-89
2022/03/07 06:56:51;;;;;;;19.77;9.27;;;;;;;4.06;54.26;100939.84;6240685;22;98400;-89
2022/03/07 06:59:17;;;;;;;22.33;9.23;;;;;;;4.08;54.04;100892.22;6215969;22;99446;-89
2022/03/07 07:01:42;;;;;;;25.27;9.43;;;;;;;4.71;53.32;100938.19;6191938;22;96687;-89
2022/03/07 07:04:08;;;;;;;25.03;8.50;;;;;;;4.95;53.10;100911.28;6217784;22;96961;-89
2022/03/07 07:06:33;;;;;;;17.93;7.87;;;;;;;5.31;52.86;100940.72;6217619;22;101350;-88
2022/03/07 07:08:59;;;;;;;17.77;8.23;;;;;;;5.58;52.34;100918.91;6217515;22;100877;-88
2022/03/07 07:11:25;;;;;;;22.77;7.87;;;;;;;5.70;51.39;100898.00;6217839;22;96641;-89
2022/03/07 07:13:50;;;;;;;16.13;7.60;;;;;;;6.02;50.75;100923.06;6193018;22;96808;-90
2022/03/07 07:16:16;;;;;;;17.10;7.70;;;;;;;6.11;50.01;100934.31;6216590;22;97967;-89
2022/03/07 07:18:42;;;;;;;17.20;7.27;;;;;;;6.05;49.96;100926.53;6191043;22;101105;-89
2022/03/07 07:21:07;;;;;;;16.63;7.63;;;;;;;6.07;50.07;100937.81;6216880;22;96666;-90
2022/03/07 07:23:34;;;;;;;13.93;7.13;;;;;;;5.76;49.89;100891.91;6192168;22;96819;-89
2022/03/07 07:26:00;;;;;;;14.80;7.40;;;;;;;6.00;49.96;100927.44;6191530;22;100852;-90
2022/03/07 07:28:25;;;;;;;17.33;8.23;;;;;;;6.00;49.79;100933.53;6190866;22;101293;-88
2022/03/07 07:30:51;;;;;;;15.10;7.80;;;;;;;5.95;49.75;100930.06;6191644;22;96716;-88
2022/03/07 07:33:17;;;;;;;15.27;7.70;;;;;;;5.89;50.40;100928.31;6192196;22;97391;-87
2022/03/07 07:35:42;;;;;;;14.73;7.10;;;;;;;5.92;50.21;100906.59;6217734;22;101529;-88
2022/03/07 07:38:08;;;;;;;15.70;7.00;;;;;;;6.03;50.21;100881.38;6192761;22;100160;-90
2022/03/07 07:40:34;;;;;;;20.73;7.97;;;;;;;6.33;49.72;100879.41;6218733;22;97118;-91
2022/03/07 07:42:59;;;;;;;20.40;8.50;;;;;;;6.84;49.07;100900.72;6193619;22;96793;-90
2022/03/07 07:45:25;;;;;;;17.90;7.57;;;;;;;7.20;47.90;100916.88;6191910;22;101112;-89
2022/03/07 07:47:51;;;;;;;18.40;7.50;;;;;;;7.24;47.91;100906.41;6192542;22;101176;-89
2022/03/07 07:50:17;;;;;;;20.17;8.90;;;;;;;7.34;47.18;100874.97;6242943;22;97136;-89
2022/03/07 07:52:43;;;;;;;20.33;8.03;;;;;;;7.86;46.95;100929.19;6216543;22;97152;-91
2022/03/07 07:55:09;;;;;;;16.25;7.55;;;;;;;7.63;46.22;100853.69;6240698;22;98354;-89
2022/03/07 07:57:35;;;;;;;15.37;7.27;;;;;;;8.17;46.12;100908.69;6215049;22;100076;-89
2022/03/07 08:00:01;;;;;;;15.15;7.85;;;;;;;8.48;45.60;100934.41;6188626;22;97011;-90
2022/03/07 08:02:26;;;;;;;14.97;7.80;;;;;;;8.70;45.44;100927.97;6241400;22;96711;-91
2022/03/07 08:04:52;;;;;;;16.73;7.82;;;;;;;8.93;45.47;100921.44;6217290;22;97563;-89
2022/03/07 08:07:18;;;;;;;16.95;7.55;;;;;;;8.89;44.57;100870.03;6216264;22;99736;-90
2022/03/07 08:09:44;;;;;;;13.05;6.95;;;;;;;9.22;44.10;100895.59;6215763;22;97019;-89
2022/03/07 08:12:10;;;;;;;14.88;7.40;;;;;;;9.58;43.52;100928.97;6191170;22;96712;-89
2022/03/07 08:14:36;;;;;;;15.30;6.80;;;;;;;9.67;43.26;100932.25;6188999;22;100831;-85
2022/03/07 08:17:03;;;;;;;20.58;7.75;;;;;;;9.51;42.92;100916.00;6242578;22;98230;-90
2022/03/07 08:19:29;;;;;;;16.73;6.95;;;;;;;9.35;43.31;100890.13;6190751;22;96963;-89
2022/03/07 08:21:54;;;;;;;13.20;7.45;;;;;;;9.33;43.05;100876.16;6192119;22;96895;-89
2022/03/07 08:24:20;;;;;;;17.30;7.85;;;;;;;9.91;42.50;100933.47;6191002;22;101107;-89
2022/03/07 08:26:46;;;;;;;18.15;8.90;;;;;;;10.23;42.67;100936.31;6217905;22;97257;-86
2022/03/07 08:29:12;;;;;;;13.93;6.40;;;;;;;10.43;41.76;100918.34;6191772;22;96548;-86
2022/03/07 08:31:37;;;;;;;18.25;7.47;;;;;;;10.56;41.63;100930.31;6214878;22;97063;-87
2022/03/07 08:34:03;;;;;;;15.85;7.28;;;;;;;10.55;41.96;100935.56;6241282;22;97689;-86
2022/03/07 08:36:31;;;;;;;10.07;5.97;;;;;;;10.82;41.60;100929.66;6215936;22;99981;-87
2022/03/07 08:38:57;;;;;;;13.85;7.15;;;;;;;11.00;40.92;100924.84;6218040;22;97535;-86
2022/03/07 08:41:22;;;;;;;13.13;7.68;;;;;;;11.15;40.00;100928.81;6218424;22;98166;-86
2022/03/07 08:43:49;;;;;;;12.00;6.32;;;;;;;10.93;40.61;100918.84;6193268;22;101893;-92
2022/03/07 08:46:15;;;;;;;9.50;5.88;;;;;;;11.21;40.32;100916.38;6244220;22;98169;-89
2022/03/07 08:48:40;;;;;;;13.45;6.55;;;;;;;11.22;39.77;100906.72;6190128;22;96554;-91
2022/03/07 08:51:06;;;;;;;13.65;5.90;;;;;;;11.11;39.85;100912.25;6193023;22;97049;-90
2022/03/07 08:53:31;;;;;;;16.35;7.32;;;;;;;10.84;40.11;100903.34;6191868;22;101401;-88
2022/03/07 08:55:57;;;;;;;13.65;6.63;;;;;;;10.54;40.85;100911.09;6217810;22;101608;-84
2022/03/07 08:58:23;;;;;;;12.85;6.57;;;;;;;10.20;41.22;100890.00;6215788;22;97314;-84
2022/03/07 09:00:48;;;;;;;14.25;6.22;;;;;;;10.26;41.70;100881.97;6243083;22;96703;-91
2022/03/07 09:03:14;;;;;;;13.32;6.13;;;;;;;10.53;41.59;100900.63;6243782;22;98121;-90
2022/03/07 09:05:39;;;;;;;11.00;6.28;;;;;;;10.86;41.10;100891.91;6218069;22;98234;-86
2022/03/07 09:08:05;;;;;;;12.27;6.43;;;;;;;11.12;40.61;100876.34;6192594;22;96564;-87
2022/03/07 09:10:31;;;;;;;12.60;7.35;;;;;;;10.99;40.48;100847.75;6192400;22;96796;-87
2022/03/07 09:12:56;;;;;;;9.45;6.20;;;;;;;11.10;40.40;100871.97;6192229;22;101174;-88
2022/03/07 09:15:22;;;;;;;11.85;6.63;;;;;;;10.99;39.90;100863.53;6192489;22;100220;-88
2022/03/07 09:17:47;;;;;;;8.45;6.30;;;;;;;10.95;40.66;100872.41;6218115;22;96693;-90
2022/03/07 09:20:16;;;;;;;17.48;6.70;;;;;;;10.63;40.70;100833.88;6217514;22;96803;-89
2022/03/07 09:22:45;;;;;;;;;;;;;;;10.83;41.02;100870.97;6219062;22;101110;-87
2022/03/07 09:25:11;;;;;;;10.40;7.00;;;;;;;10.70;41.01;100864.28;6212961;22;100682;-82
2022/03/07 09:27:36;;;;;;;12.18;7.28;;;;;;;10.61;40.87;100864.53;6186435;22;96697;-81
2022/03/07 09:30:04;;;;;;;11.70;7.22;;;;;;;10.58;41.23;100848.88;6212875;22;97444;-82
2022/03/07 09:32:30;;;;;;;12.63;6.57;;;;;;;10.95;41.31;100863.66;6186198;22;101125;-84
2022/03/07 09:34:55;;;;;;;11.88;6.40;;;;;;;11.30;40.54;100847.78;6212649;22;97923;-82
2022/03/07 09:37:21;;;;;;;11.90;7.03;;;;;;;11.72;39.67;100851.81;6186098;22;97170;-82
2022/03/07 09:39:46;;;;;;;11.43;7.40;;;;;;;11.81;39.70;100856.81;6213955;22;98246;-89
2022/03/07 09:42:12;;;;;;;12.95;7.95;;;;;;;12.08;39.64;100851.63;6186920;22;101474;-90
2022/03/07 09:44:38;;;;;;;10.07;7.05;;;;;;;12.46;39.06;100847.75;6217137;22;101029;-90
2022/03/07 09:47:04;;;;;;;7.50;5.68;;;;;;;12.49;38.72;100802.03;6224318;22;97054;-90
2022/03/07 09:49:31;;;;;;;11.48;6.68;;;;;;;12.85;37.42;100826.19;6214454;22;96947;-90
2022/03/07 09:51:58;;;;;;;11.15;6.13;;;;;;;12.73;37.65;100831.91;6213327;22;98731;-85
2022/03/07 09:54:24;;;;;;;11.60;6.30;;;;;;;12.55;37.72;100844.78;6212493;22;98278;-87
2022/03/07 09:56:50;;;;;;;15.60;7.45;;;;;;;12.26;37.55;100811.53;6189020;22;97241;-90
2022/03/07 09:59:17;;;;;;;12.73;7.68;;;;;;;11.97;38.16;100821.25;6214242;22;97248;-88
2022/03/07 10:01:43;;;;;;;12.10;7.32;;;;;;;11.94;38.34;100831.88;6213171;22;101515;-88
2022/03/07 10:04:12;;;;;;;13.05;7.05;;;;;;;11.84;38.21;100808.47;6238384;22;97569;-89
2022/03/07 10:06:47;;;;;;;11.30;6.22;;;;;;;11.56;38.02;100786.53;6213699;22;96677;-89
2022/03/07 10:09:22;;;;;;;8.70;6.10;;;;;;;11.69;38.79;100831.75;6214381;22;96787;-83
2022/03/07 10:12:00;;;;;;;9.73;5.40;;;;;;;11.42;38.90;100815.00;6215817;22;97617;-92
2022/03/07 10:14:52;;;;;;;8.93;6.13;;;;;;;11.24;38.92;100819.03;6215073;22;98145;-88
2022/03/07 10:17:21;;;;;;;;;;;;;;;11.12;39.40;100842.19;6208228;22;97215;-89
2022/03/07 10:19:48;;;;;;;8.18;5.93;;;;;;;11.03;39.52;100835.44;6187660;22;97178;-90
2022/03/07 10:22:19;;;;;;;9.80;5.78;;;;;;;11.07;39.84;100831.81;6187370;22;101786;-89
2022/03/07 10:24:45;;;;;;;11.02;5.97;;;;;;;11.10;39.93;100829.94;6188596;22;101315;-91
2022/03/07 10:27:30;;;;;;;7.82;5.43;;;;;;;11.13;39.65;100831.63;6188079;22;96991;-90
2022/03/07 10:29:56;;;;;;;11.18;5.65;;;;;;;11.07;39.77;100834.44;6214735;22;97365;-90
2022/03/07 10:32:22;;;;;;;10.98;5.07;;;;;;;11.04;39.34;100842.41;6214163;22;96779;-90
2022/03/07 10:34:48;;;;;;;9.50;5.55;;;;;;;10.88;39.24;100840.19;6214823;22;101302;-90
2022/03/07 10:37:14;;;;;;;9.38;5.35;;;;;;;10.84;39.78;100842.94;6186017;22;97310;-90
2022/03/07 10:39:53;;;;;;;8.25;5.22;;;;;;;10.74;39.58;100844.94;6215181;22;96890;-90
2022/03/07 10:42:19;;;;;;;12.95;4.80;;;;;;;10.61;39.18;100841.75;6212970;22;98374;-90
2022/03/07 10:44:46;;;;;;;14.68;5.78;;;;;;;10.50;39.44;100835.97;6223066;22;98750;-90
2022/03/07 10:47:19;;;;;;;16.27;6.03;;;;;;;10.33;39.64;100823.25;6234429;22;96953;-90
2022/03/07 10:49:50;;;;;;;8.70;4.88;;;;;;;10.31;39.98;100838.16;6225044;22;96901;-90
2022/03/07 10:52:16;;;;;;;9.40;5.10;;;;;;;10.18;40.19;100820.94;6192637;22;100301;-90
2022/03/07 10:54:42;;;;;;;9.02;4.85;;;;;;;10.08;40.70;100812.47;6241111;22;98271;-91
2022/03/07 10:57:08;;;;;;;9.68;4.72;;;;;;;10.13;40.64;100826.34;6190427;22;96618;-89
2022/03/07 10:59:36;;;;;;;11.50;6.00;;;;;;;10.03;40.60;100803.81;6238399;22;97339;-85
2022/03/07 11:02:06;;;;;;;11.15;4.80;;;;;;;9.98;40.59;100814.44;6212918;22;98042;-84
2022/03/07 11:04:37;;;;;;;11.57;5.00;;;;;;;9.82;40.63;100799.97;6239216;22;97845;-79
2022/03/07 11:07:03;;;;;;;7.18;5.13;;;;;;;9.60;41.41;100775.13;6239457;22;96733;-84
2022/03/07 11:09:29;;;;;;;9.27;4.63;;;;;;;9.88;41.63;100815.53;6213246;22;97054;-83
2022/03/07 11:11:55;;;;;;;11.43;4.97;;;;;;;10.06;41.85;100819.50;6239209;22;98103;-89
2022/03/07 11:14:21;;;;;;;8.20;5.00;;;;;;;10.16;42.06;100807.88;6187071;22;99515;-82